Arkansas International Airport Blytheville US
ICAO: KBYH
IATA: BYH
Category: Medium
Scheduled Services: No

Elevation: 254 ft
TransAlt. 18000 ft.

Airport Communications:
MEMPHIS CNTR:134.65
CTAF/UNICOM:122.7

KBYH Zoom In..

If Map Doesn't Load, Click Here

Runways:

(A) RW 18 length 11602 ft width 150 ft
ILS 110.30 / hdg 179

(B) RW 36 length 11602 ft width 150 ft
---- / hdg 359

Location; KBYH
Day. 21 / Time. 14.57 Zulu
* Altimeter: 30.05
* Temperature: 31° c. 87.8°f.
* Wind from: 250° Speed 07 kn.
Dewpoint: 23° c.
Visibility: 10 Statute Miles.
Clouds: Few 15000 ft.

KBYH 211457Z 25007KT 10SM FEW150 31/23 A3005


Wind From 250°
Speed 07 kn.

 
 
jpsmedia.com for Web Design worldairports.se 2018   terms of use